Time;durP1;ratioP1;P1;durP2;ratioP2;P2;SDS_P1;SDS_P2;PMS_P1;PMS_P2;Temp;Humidity;BMP_temperature;BMP_pressure;BME280_temperature;BME280_humidity;BME280_pressure;Samples;Min_cycle;Max_cycle;Signal;HPM_P1;HPM_P2
2023/07/15 00:03:30;;;;;;;1.90;1.42;;;;;;;;;;8325287;28;20068;-72
2023/07/15 00:07:30;;;;;;;2.17;1.30;;;;;;;;;;8325573;28;20107;-72
2023/07/15 00:11:37;;;;;;;3.40;1.27;;;;;;;;;;8322985;28;20037;-72
2023/07/15 00:15:37;;;;;;;2.05;1.40;;;;;;;;;;8325974;28;20091;-72
2023/07/15 00:19:39;;;;;;;3.03;1.40;;;;;;;;;;8322688;28;20028;-72
2023/07/15 00:23:40;;;;;;;2.55;1.30;;;;;;;;;;8322178;28;20027;-72
2023/07/15 00:27:40;;;;;;;2.25;1.00;;;;;;;;;;8322491;28;20056;-72
2023/07/15 00:31:43;;;;;;;1.95;1.33;;;;;;;;;;8305946;28;20082;-72
2023/07/15 00:35:45;;;;;;;1.20;1.08;;;;;;;;;;8325173;28;20397;-72
2023/07/15 00:39:45;;;;;;;1.80;1.17;;;;;;;;;;8324081;28;20842;-72
2023/07/15 00:43:52;;;;;;;2.20;1.30;;;;;;;;;;8320816;28;20128;-72
2023/07/15 00:48:12;;;;;;;1.40;1.20;;;;;;;;;;8304270;28;20049;-72
2023/07/15 00:52:14;;;;;;;2.78;1.30;;;;;;;;;;8322977;28;20031;-72
2023/07/15 00:56:14;;;;;;;2.47;1.50;;;;;;;;;;8323325;28;20027;-73
2023/07/15 01:00:15;;;;;;;2.30;1.40;;;;;;;;;;8323242;28;20482;-72
2023/07/15 01:04:15;;;;;;;2.40;1.10;;;;;;;;;;8305761;28;20159;-72
2023/07/15 01:08:16;;;;;;;4.32;1.50;;;;;;;;;;8314604;28;20033;-72
2023/07/15 01:12:16;;;;;;;2.27;1.20;;;;;;;;;;8305750;28;20451;-72
2023/07/15 01:16:16;;;;;;;1.58;1.40;;;;;;;;;;8301206;28;20287;-72
2023/07/15 01:20:22;;;;;;;2.93;1.30;;;;;;;;;;8299959;28;20060;-73
2023/07/15 01:24:22;;;;;;;3.47;1.35;;;;;;;;;;8302473;28;20029;-72
2023/07/15 01:28:22;;;;;;;1.87;1.20;;;;;;;;;;8307484;28;20036;-72
2023/07/15 01:32:23;;;;;;;2.27;1.20;;;;;;;;;;8319864;28;20406;-72
2023/07/15 01:36:24;;;;;;;1.30;1.20;;;;;;;;;;8322944;28;20275;-72
2023/07/15 01:40:25;;;;;;;3.28;1.52;;;;;;;;;;8320791;28;20021;-72
2023/07/15 01:44:25;;;;;;;3.28;1.23;;;;;;;;;;8323167;28;20036;-72
2023/07/15 01:48:25;;;;;;;2.08;1.10;;;;;;;;;;8320851;28;20379;-72
2023/07/15 01:52:26;;;;;;;2.20;1.20;;;;;;;;;;8322683;28;20071;-72
2023/07/15 01:56:26;;;;;;;2.07;1.10;;;;;;;;;;8322262;28;20071;-72
2023/07/15 02:00:27;;;;;;;1.47;1.13;;;;;;;;;;8321498;28;20267;-72
2023/07/15 02:04:27;;;;;;;1.58;1.20;;;;;;;;;;8321713;28;20275;-72
2023/07/15 02:08:27;;;;;;;1.30;1.10;;;;;;;;;;8321431;28;20032;-72
2023/07/15 02:12:28;;;;;;;2.50;1.17;;;;;;;;;;8321743;28;20061;-72
2023/07/15 02:16:28;;;;;;;2.10;1.10;;;;;;;;;;8322886;28;20052;-72
2023/07/15 02:20:28;;;;;;;3.37;1.10;;;;;;;;;;8318834;28;20478;-72
2023/07/15 02:24:29;;;;;;;3.85;1.08;;;;;;;;;;8321844;28;20061;-72
2023/07/15 02:28:29;;;;;;;1.50;1.10;;;;;;;;;;8308850;28;20088;-72
2023/07/15 02:32:39;;;;;;;2.03;1.20;;;;;;;;;;8321487;28;20037;-72
2023/07/15 02:36:39;;;;;;;3.55;1.30;;;;;;;;;;8322936;28;20110;-72
2023/07/15 02:40:40;;;;;;;1.40;1.20;;;;;;;;;;8322980;28;20016;-73
2023/07/15 02:44:40;;;;;;;5.35;1.35;;;;;;;;;;8322313;28;20417;-72
2023/07/15 02:48:41;;;;;;;1.38;1.27;;;;;;;;;;8325661;28;20128;-72
2023/07/15 02:52:42;;;;;;;1.25;1.15;;;;;;;;;;8328606;28;20478;-72
2023/07/15 02:56:43;;;;;;;2.90;1.60;;;;;;;;;;8326813;28;20127;-72
2023/07/15 03:00:43;;;;;;;2.50;1.20;;;;;;;;;;8325815;28;20123;-72
2023/07/15 03:04:43;;;;;;;2.05;1.20;;;;;;;;;;8326760;28;20130;-72
2023/07/15 03:08:44;;;;;;;5.82;1.40;;;;;;;;;;8324894;28;20021;-72
2023/07/15 03:12:45;;;;;;;3.22;1.48;;;;;;;;;;8324026;28;20025;-72
2023/07/15 03:16:45;;;;;;;4.80;1.20;;;;;;;;;;8326407;28;20045;-73
2023/07/15 03:20:46;;;;;;;4.33;1.40;;;;;;;;;;8325710;28;20090;-72
2023/07/15 03:24:46;;;;;;;1.45;1.20;;;;;;;;;;8325773;28;20028;-72
2023/07/15 03:28:46;;;;;;;1.27;1.20;;;;;;;;;;8323060;28;20484;-72
2023/07/15 03:32:46;;;;;;;2.40;1.30;;;;;;;;;;8324773;28;20389;-72
2023/07/15 03:36:47;;;;;;;1.25;1.15;;;;;;;;;;8325625;28;20051;-72
2023/07/15 03:40:48;;;;;;;2.50;1.50;;;;;;;;;;8324811;28;20056;-73
2023/07/15 03:44:49;;;;;;;2.47;1.30;;;;;;;;;;8322738;28;20585;-73
2023/07/15 03:48:49;;;;;;;1.35;1.10;;;;;;;;;;8325392;28;20040;-72
2023/07/15 03:52:49;;;;;;;2.10;1.25;;;;;;;;;;8325407;28;20021;-72
2023/07/15 03:56:49;;;;;;;2.55;1.17;;;;;;;;;;8320962;28;20028;-72
2023/07/15 04:00:50;;;;;;;1.33;1.25;;;;;;;;;;8323223;28;20033;-72
2023/07/15 04:04:50;;;;;;;2.75;1.30;;;;;;;;;;8307899;28;20028;-72
2023/07/15 04:08:50;;;;;;;1.60;1.40;;;;;;;;;;8325133;28;20028;-72
2023/07/15 04:12:51;;;;;;;1.83;1.60;;;;;;;;;;8324583;28;20024;-72
2023/07/15 04:16:51;;;;;;;2.03;1.67;;;;;;;;;;8325374;28;20080;-72
2023/07/15 04:20:51;;;;;;;3.07;1.40;;;;;;;;;;8322893;28;20910;-72
2023/07/15 04:24:51;;;;;;;3.83;1.60;;;;;;;;;;8327055;28;20078;-72
2023/07/15 04:28:52;;;;;;;3.08;1.60;;;;;;;;;;8321437;28;20028;-72
2023/07/15 04:32:53;;;;;;;1.70;1.60;;;;;;;;;;8324737;28;20086;-72
2023/07/15 04:36:53;;;;;;;2.25;1.50;;;;;;;;;;8323581;28;20082;-72
2023/07/15 04:40:53;;;;;;;2.88;1.58;;;;;;;;;;8324139;28;20029;-72
2023/07/15 04:44:53;;;;;;;1.75;1.63;;;;;;;;;;8323726;28;20090;-72
2023/07/15 04:48:53;;;;;;;2.37;1.43;;;;;;;;;;8324415;28;20103;-71
2023/07/15 04:52:54;;;;;;;1.70;1.40;;;;;;;;;;8320171;28;20025;-72
2023/07/15 04:56:55;;;;;;;6.97;1.67;;;;;;;;;;8324068;28;20140;-72
2023/07/15 05:00:57;;;;;;;4.03;1.50;;;;;;;;;;8324593;28;20029;-72
2023/07/15 05:04:58;;;;;;;1.77;1.65;;;;;;;;;;8326445;28;20029;-72
2023/07/15 05:08:58;;;;;;;3.95;1.48;;;;;;;;;;8320036;28;20033;-72
2023/07/15 05:12:58;;;;;;;3.00;1.50;;;;;;;;;;8323084;28;20075;-72
2023/07/15 05:16:58;;;;;;;2.65;1.40;;;;;;;;;;8323618;28;20067;-72
2023/07/15 05:20:59;;;;;;;3.22;1.73;;;;;;;;;;8320175;28;20082;-75
2023/07/15 05:24:59;;;;;;;2.28;1.50;;;;;;;;;;8323141;28;20097;-72
2023/07/15 05:29:00;;;;;;;3.42;1.65;;;;;;;;;;8320042;28;20021;-72
2023/07/15 05:33:00;;;;;;;2.25;1.50;;;;;;;;;;8304271;28;20045;-73
2023/07/15 05:37:00;;;;;;;4.03;1.73;;;;;;;;;;8322340;28;20021;-72
2023/07/15 05:41:00;;;;;;;1.75;1.40;;;;;;;;;;8320825;28;20028;-72
2023/07/15 05:45:00;;;;;;;2.10;1.85;;;;;;;;;;8321346;28;20106;-73
2023/07/15 05:49:03;;;;;;;2.58;1.48;;;;;;;;;;8320798;28;20064;-72
2023/07/15 05:53:03;;;;;;;3.13;1.48;;;;;;;;;;8318334;28;20017;-72
2023/07/15 05:57:04;;;;;;;2.85;1.60;;;;;;;;;;8321669;28;20040;-72
2023/07/15 06:01:04;;;;;;;1.95;1.52;;;;;;;;;;8319740;28;20061;-71
2023/07/15 06:05:05;;;;;;;2.50;1.63;;;;;;;;;;8321116;28;20051;-71
2023/07/15 06:09:05;;;;;;;2.25;1.42;;;;;;;;;;8319731;28;20033;-72
2023/07/15 06:13:05;;;;;;;2.60;1.90;;;;;;;;;;8314130;28;20037;-72
2023/07/15 06:17:05;;;;;;;4.00;2.00;;;;;;;;;;8319701;28;20124;-72
2023/07/15 06:21:06;;;;;;;5.60;1.50;;;;;;;;;;8306204;28;20021;-72
2023/07/15 06:25:07;;;;;;;1.65;1.48;;;;;;;;;;8326011;28;20016;-72
2023/07/15 06:29:07;;;;;;;3.63;1.77;;;;;;;;;;8325281;28;20028;-74
2023/07/15 06:33:07;;;;;;;3.97;1.60;;;;;;;;;;8324903;28;21040;-74
2023/07/15 06:37:08;;;;;;;4.97;1.73;;;;;;;;;;8327218;28;21016;-75
2023/07/15 06:41:08;;;;;;;3.83;1.63;;;;;;;;;;8326460;28;20833;-73
2023/07/15 06:45:08;;;;;;;3.35;1.58;;;;;;;;;;8322272;28;20172;-73
2023/07/15 06:49:08;;;;;;;4.33;1.60;;;;;;;;;;8305854;28;20191;-74
2023/07/15 06:53:09;;;;;;;2.08;1.70;;;;;;;;;;8314303;28;20267;-73
2023/07/15 06:57:09;;;;;;;3.60;1.70;;;;;;;;;;8325613;28;20032;-70
2023/07/15 07:01:09;;;;;;;2.15;1.65;;;;;;;;;;8324410;28;20060;-70
2023/07/15 07:05:09;;;;;;;2.00;1.60;;;;;;;;;;8325797;28;20028;-70
2023/07/15 07:09:10;;;;;;;2.00;1.80;;;;;;;;;;8324887;28;20107;-70
2023/07/15 07:13:10;;;;;;;1.70;1.45;;;;;;;;;;8323677;28;20110;-70
2023/07/15 07:17:10;;;;;;;7.20;1.95;;;;;;;;;;8322200;28;20102;-70
2023/07/15 07:21:11;;;;;;;4.73;1.50;;;;;;;;;;8324406;28;20044;-71
2023/07/15 07:25:11;;;;;;;1.95;1.65;;;;;;;;;;8300634;28;20028;-70
2023/07/15 07:29:11;;;;;;;2.67;1.73;;;;;;;;;;8319593;28;20021;-70
2023/07/15 07:33:11;;;;;;;2.70;1.60;;;;;;;;;;8326757;28;20509;-69
2023/07/15 07:37:11;;;;;;;3.72;1.92;;;;;;;;;;8323400;28;20135;-70
2023/07/15 07:41:12;;;;;;;2.90;1.80;;;;;;;;;;8325275;28;20031;-70
2023/07/15 07:45:13;;;;;;;8.40;1.77;;;;;;;;;;8325749;28;20057;-70
2023/07/15 07:49:14;;;;;;;32.13;4.05;;;;;;;;;;8325467;28;20668;-70
2023/07/15 07:53:14;;;;;;;8.93;2.35;;;;;;;;;;8325324;28;20017;-73
2023/07/15 07:57:15;;;;;;;22.98;3.85;;;;;;;;;;8323647;28;20489;-73
2023/07/15 08:01:16;;;;;;;15.77;3.53;;;;;;;;;;8323594;28;20751;-73
2023/07/15 08:05:17;;;;;;;3.47;1.90;;;;;;;;;;8325370;28;20693;-73
2023/07/15 08:09:17;;;;;;;3.35;1.85;;;;;;;;;;8323102;28;20041;-74
2023/07/15 08:13:17;;;;;;;2.90;1.60;;;;;;;;;;8320486;28;20172;-70
2023/07/15 08:17:18;;;;;;;3.15;1.80;;;;;;;;;;8316320;28;20064;-71
2023/07/15 08:21:18;;;;;;;15.02;2.30;;;;;;;;;;8299988;28;20032;-71
2023/07/15 08:25:18;;;;;;;4.68;1.70;;;;;;;;;;8322140;28;20032;-70
2023/07/15 08:29:18;;;;;;;6.78;1.95;;;;;;;;;;8322314;28;20092;-72
2023/07/15 08:33:18;;;;;;;2.83;1.80;;;;;;;;;;8320493;28;20106;-71
2023/07/15 08:37:19;;;;;;;2.90;1.77;;;;;;;;;;8317359;28;20029;-72
2023/07/15 08:41:21;;;;;;;3.97;1.80;;;;;;;;;;8321754;28;20029;-71
2023/07/15 08:45:24;;;;;;;3.70;1.80;;;;;;;;;;8319729;28;20025;-71
2023/07/15 08:49:25;;;;;;;3.50;1.73;;;;;;;;;;8323288;28;20224;-72
2023/07/15 08:53:27;;;;;;;7.00;1.90;;;;;;;;;;8319073;28;20461;-72
2023/07/15 08:57:27;;;;;;;5.10;1.90;;;;;;;;;;8321473;28;20032;-72
2023/07/15 09:01:27;;;;;;;3.75;1.77;;;;;;;;;;8316689;28;20534;-73
2023/07/15 09:05:27;;;;;;;10.07;2.00;;;;;;;;;;8320605;28;20036;-73
2023/07/15 09:09:32;;;;;;;6.40;1.90;;;;;;;;;;8322225;28;20032;-73
2023/07/15 09:13:35;;;;;;;5.40;2.03;;;;;;;;;;8324295;28;20151;-72
2023/07/15 09:17:35;;;;;;;6.60;2.15;;;;;;;;;;8305863;28;20640;-72
2023/07/15 09:21:35;;;;;;;10.13;1.90;;;;;;;;;;8322662;28;20147;-73
2023/07/15 09:25:36;;;;;;;12.13;2.45;;;;;;;;;;8324498;28;20036;-72
2023/07/15 09:29:36;;;;;;;12.50;2.33;;;;;;;;;;8322407;28;20139;-73
2023/07/15 09:33:42;;;;;;;5.88;2.00;;;;;;;;;;8325384;28;20504;-73
2023/07/15 09:37:45;;;;;;;14.93;2.75;;;;;;;;;;8304814;28;20111;-73
2023/07/15 09:41:58;;;;;;;16.83;2.78;;;;;;;;;;8322789;28;20033;-72
2023/07/15 09:45:58;;;;;;;12.45;2.70;;;;;;;;;;8323804;28;20160;-72
2023/07/15 09:49:58;;;;;;;6.53;2.50;;;;;;;;;;8325119;28;20028;-72
2023/07/15 09:54:00;;;;;;;9.00;2.35;;;;;;;;;;8326121;28;20024;-73
2023/07/15 09:58:01;;;;;;;4.55;2.45;;;;;;;;;;8329400;28;20098;-72
2023/07/15 10:02:24;;;;;;;6.15;2.50;;;;;;;;;;8329631;28;21031;-72
2023/07/15 10:06:24;;;;;;;5.55;2.42;;;;;;;;;;8317807;28;20044;-73
2023/07/15 10:10:26;;;;;;;4.47;2.30;;;;;;;;;;8329329;28;20032;-73
2023/07/15 10:14:29;;;;;;;8.52;2.13;;;;;;;;;;8330526;28;20053;-73
2023/07/15 10:18:31;;;;;;;;;;;;;;;;;;8330656;28;20160;-73
2023/07/15 10:22:35;;;;;;;5.70;2.20;;;;;;;;;;8330114;28;19913;-73
2023/07/15 10:26:46;;;;;;;7.32;2.30;;;;;;;;;;8327898;28;20037;-72
2023/07/15 10:31:05;;;;;;;7.78;2.38;;;;;;;;;;8326490;28;20151;-72
2023/07/15 10:35:05;;;;;;;12.38;2.30;;;;;;;;;;8324164;28;20028;-72
2023/07/15 10:39:11;;;;;;;5.23;2.30;;;;;;;;;;8324306;28;20105;-71
2023/07/15 10:43:11;;;;;;;5.72;2.15;;;;;;;;;;8324492;28;20696;-71
2023/07/15 10:47:15;;;;;;;3.47;2.20;;;;;;;;;;8323182;28;20045;-71
2023/07/15 10:51:15;;;;;;;3.33;2.42;;;;;;;;;;8315251;28;20036;-72
2023/07/15 10:55:16;;;;;;;5.45;2.45;;;;;;;;;;8319036;28;20933;-71
2023/07/15 10:59:16;;;;;;;5.13;2.40;;;;;;;;;;8321665;28;20032;-71
2023/07/15 11:03:18;;;;;;;6.38;2.65;;;;;;;;;;8321667;28;20060;-73
2023/07/15 11:07:18;;;;;;;4.18;2.50;;;;;;;;;;8322911;28;20457;-71
2023/07/15 11:11:19;;;;;;;4.97;2.47;;;;;;;;;;8323279;28;20090;-71
2023/07/15 11:15:19;;;;;;;5.55;2.35;;;;;;;;;;8320433;28;20024;-71
2023/07/15 11:19:20;;;;;;;4.68;2.65;;;;;;;;;;8302019;28;20048;-71
2023/07/15 11:23:20;;;;;;;5.97;2.70;;;;;;;;;;8306099;28;20021;-72
2023/07/15 11:27:21;;;;;;;4.13;2.95;;;;;;;;;;8319783;28;20684;-72
2023/07/15 11:31:21;;;;;;;5.83;2.83;;;;;;;;;;8323036;28;20047;-71
2023/07/15 11:35:22;;;;;;;3.90;2.40;;;;;;;;;;8321506;28;20310;-71
2023/07/15 11:39:22;;;;;;;5.43;2.50;;;;;;;;;;8303319;28;20116;-71
2023/07/15 11:43:23;;;;;;;5.85;2.50;;;;;;;;;;8321703;28;20035;-70
2023/07/15 11:47:23;;;;;;;4.88;2.90;;;;;;;;;;8321615;28;21118;-71
2023/07/15 11:51:24;;;;;;;5.38;2.63;;;;;;;;;;8319549;28;20021;-71
2023/07/15 11:55:24;;;;;;;6.47;2.50;;;;;;;;;;8321925;28;20039;-71
2023/07/15 11:59:26;;;;;;;4.03;2.25;;;;;;;;;;8322252;28;20029;-70
2023/07/15 12:03:26;;;;;;;3.78;2.40;;;;;;;;;;8319709;28;20339;-71
2023/07/15 12:07:27;;;;;;;4.93;2.50;;;;;;;;;;8300333;28;20025;-72
2023/07/15 12:11:27;;;;;;;6.15;2.45;;;;;;;;;;8319811;28;20013;-71
2023/07/15 12:15:28;;;;;;;3.05;2.40;;;;;;;;;;8321203;28;20032;-71
2023/07/15 12:19:31;;;;;;;4.40;2.70;;;;;;;;;;8320450;28;20025;-71
2023/07/15 12:23:31;;;;;;;6.07;2.50;;;;;;;;;;8317935;28;20040;-71
2023/07/15 12:27:32;;;;;;;4.10;2.70;;;;;;;;;;8316160;28;20029;-71
2023/07/15 12:31:32;;;;;;;5.07;2.10;;;;;;;;;;8318264;28;20104;-72
2023/07/15 12:35:32;;;;;;;6.87;2.30;;;;;;;;;;8322227;28;20020;-71
2023/07/15 12:39:33;;;;;;;4.80;2.40;;;;;;;;;;8317990;28;20029;-72
2023/07/15 12:43:40;;;;;;;6.05;2.78;;;;;;;;;;8327107;28;20423;-60
2023/07/15 12:47:40;;;;;;;4.82;2.40;;;;;;;;;;8322120;28;20095;-60
2023/07/15 12:51:42;;;;;;;3.90;2.30;;;;;;;;;;8327807;28;20021;-59
2023/07/15 12:55:42;;;;;;;2.95;2.15;;;;;;;;;;8328528;28;20025;-61
2023/07/15 12:59:42;;;;;;;4.05;2.30;;;;;;;;;;8328228;28;20029;-59
2023/07/15 13:03:42;;;;;;;3.10;2.00;;;;;;;;;;8327437;28;20485;-59
2023/07/15 13:07:43;;;;;;;4.75;2.30;;;;;;;;;;8328268;28;20029;-60
2023/07/15 13:11:43;;;;;;;2.58;2.20;;;;;;;;;;8330201;28;20411;-60
2023/07/15 13:15:46;;;;;;;8.10;2.83;;;;;;;;;;8327062;28;20162;-60
2023/07/15 13:19:46;;;;;;;9.00;2.90;;;;;;;;;;8326051;28;20524;-59
2023/07/15 13:23:47;;;;;;;6.88;3.20;;;;;;;;;;8325943;28;20025;-60
2023/07/15 13:27:47;;;;;;;6.20;2.88;;;;;;;;;;8327069;28;20287;-59
2023/07/15 13:31:47;;;;;;;13.55;3.97;;;;;;;;;;8325128;28;20033;-60
2023/07/15 13:35:47;;;;;;;6.87;3.00;;;;;;;;;;8327398;28;20051;-60
2023/07/15 13:39:48;;;;;;;6.30;3.10;;;;;;;;;;8327615;28;20135;-60
2023/07/15 13:43:48;;;;;;;10.80;3.85;;;;;;;;;;8325377;28;20021;-60
2023/07/15 13:47:51;;;;;;;6.88;3.10;;;;;;;;;;8326658;28;20040;-60
2023/07/15 13:51:54;;;;;;;10.48;3.00;;;;;;;;;;8319759;28;20482;-60
2023/07/15 13:55:55;;;;;;;9.65;3.63;;;;;;;;;;8301567;28;20171;-59
2023/07/15 13:59:55;;;;;;;6.80;3.20;;;;;;;;;;8301326;28;20712;-60
2023/07/15 14:03:55;;;;;;;6.60;3.40;;;;;;;;;;8301691;28;20028;-60
2023/07/15 14:07:55;;;;;;;5.47;3.00;;;;;;;;;;8301055;28;20753;-61
2023/07/15 14:11:56;;;;;;;7.23;3.70;;;;;;;;;;8300870;28;20029;-60
2023/07/15 14:15:56;;;;;;;6.45;3.47;;;;;;;;;;8300248;28;20099;-60
2023/07/15 14:19:57;;;;;;;4.17;3.30;;;;;;;;;;8301024;28;20484;-60
2023/07/15 14:23:58;;;;;;;3.58;2.53;;;;;;;;;;8299852;28;20033;-60
2023/07/15 14:27:58;;;;;;;4.38;2.70;;;;;;;;;;8301329;28;20024;-60
2023/07/15 14:31:59;;;;;;;4.32;2.40;;;;;;;;;;8298673;28;20120;-60
2023/07/15 14:36:00;;;;;;;3.58;2.85;;;;;;;;;;8302098;28;20070;-60
2023/07/15 14:40:00;;;;;;;4.38;2.42;;;;;;;;;;8300174;28;20153;-60
2023/07/15 14:44:00;;;;;;;3.75;2.85;;;;;;;;;;8301571;28;20151;-61
2023/07/15 14:48:00;;;;;;;6.05;2.47;;;;;;;;;;8299489;28;20071;-61
2023/07/15 14:52:01;;;;;;;6.77;3.00;;;;;;;;;;8299992;28;20060;-61
2023/07/15 14:56:02;;;;;;;3.67;2.63;;;;;;;;;;8299916;28;20025;-61
2023/07/15 15:00:02;;;;;;;3.47;3.13;;;;;;;;;;8298556;28;20771;-61
2023/07/15 15:04:02;;;;;;;4.30;2.60;;;;;;;;;;8297981;28;20044;-61
2023/07/15 15:08:03;;;;;;;4.68;2.63;;;;;;;;;;8299357;28;20021;-61
2023/07/15 15:12:03;;;;;;;5.30;3.17;;;;;;;;;;8297508;28;20024;-61
2023/07/15 15:16:04;;;;;;;6.75;3.60;;;;;;;;;;8299035;28;20043;-61
2023/07/15 15:20:05;;;;;;;5.07;3.00;;;;;;;;;;8296645;28;20041;-61
2023/07/15 15:24:07;;;;;;;4.28;2.92;;;;;;;;;;8292441;28;20075;-61
2023/07/15 15:28:08;;;;;;;5.32;3.08;;;;;;;;;;8298853;28;20094;-61
2023/07/15 15:32:08;;;;;;;3.20;2.83;;;;;;;;;;8299036;28;20117;-61
2023/07/15 15:36:08;;;;;;;6.38;2.65;;;;;;;;;;8299550;28;20030;-61
2023/07/15 15:40:08;;;;;;;4.45;2.85;;;;;;;;;;8298250;28;20037;-61
2023/07/15 15:44:09;;;;;;;2.35;2.15;;;;;;;;;;8298593;28;20180;-61
2023/07/15 15:48:09;;;;;;;5.17;2.67;;;;;;;;;;8298582;28;20039;-61
2023/07/15 15:52:09;;;;;;;2.63;2.40;;;;;;;;;;8300063;28;20024;-61
2023/07/15 15:56:09;;;;;;;3.50;2.35;;;;;;;;;;8307098;28;20044;-61
2023/07/15 16:00:10;;;;;;;4.10;2.70;;;;;;;;;;8300857;28;20082;-61
2023/07/15 16:04:10;;;;;;;5.72;2.75;;;;;;;;;;8299307;28;20025;-61
2023/07/15 16:08:11;;;;;;;3.58;2.42;;;;;;;;;;8299406;28;20029;-61
2023/07/15 16:12:11;;;;;;;2.63;2.30;;;;;;;;;;8300546;28;20055;-61
2023/07/15 16:16:12;;;;;;;2.42;2.22;;;;;;;;;;8296647;28;20474;-61
2023/07/15 16:20:12;;;;;;;5.03;2.40;;;;;;;;;;8298652;28;20033;-61
2023/07/15 16:24:12;;;;;;;3.20;2.23;;;;;;;;;;8301154;28;20133;-61
2023/07/15 16:28:12;;;;;;;2.60;2.40;;;;;;;;;;8298171;28;20366;-61
2023/07/15 16:32:13;;;;;;;4.38;2.30;;;;;;;;;;8300593;28;20033;-61
2023/07/15 16:36:13;;;;;;;3.58;2.22;;;;;;;;;;8299207;28;20044;-61
2023/07/15 16:40:13;;;;;;;2.58;2.10;;;;;;;;;;8301801;28;20028;-61
2023/07/15 16:44:13;;;;;;;2.35;2.10;;;;;;;;;;8299590;28;20033;-61
2023/07/15 16:48:13;;;;;;;3.65;2.30;;;;;;;;;;8300932;28;20037;-61
2023/07/15 16:52:14;;;;;;;3.35;2.50;;;;;;;;;;8302912;28;20102;-61
2023/07/15 16:56:14;;;;;;;3.10;2.03;;;;;;;;;;8301719;28;20032;-61
2023/07/15 17:00:14;;;;;;;3.10;2.30;;;;;;;;;;8302657;28;20068;-61
2023/07/15 17:04:14;;;;;;;2.47;2.10;;;;;;;;;;8301194;28;20825;-61
2023/07/15 17:08:15;;;;;;;3.50;2.58;;;;;;;;;;8301296;28;20489;-61
2023/07/15 17:12:15;;;;;;;4.23;2.20;;;;;;;;;;8298502;28;20032;-61
2023/07/15 17:16:15;;;;;;;2.10;1.88;;;;;;;;;;8298773;28;20075;-61
2023/07/15 17:20:15;;;;;;;2.10;1.77;;;;;;;;;;8300998;28;20025;-61
2023/07/15 17:24:16;;;;;;;3.10;1.88;;;;;;;;;;8300183;28;20029;-61
2023/07/15 17:28:16;;;;;;;3.53;1.73;;;;;;;;;;8301332;28;20057;-61
2023/07/15 17:32:16;;;;;;;1.80;1.70;;;;;;;;;;8306564;28;20033;-61
2023/07/15 17:36:17;;;;;;;2.72;1.60;;;;;;;;;;8305566;28;20943;-61
2023/07/15 17:40:17;;;;;;;2.50;1.70;;;;;;;;;;8305706;28;20655;-60
2023/07/15 17:44:17;;;;;;;2.10;1.70;;;;;;;;;;8304674;28;20080;-60
2023/07/15 17:48:18;;;;;;;2.50;1.60;;;;;;;;;;8305492;28;20313;-61
2023/07/15 17:52:18;;;;;;;3.42;1.75;;;;;;;;;;8307675;28;20033;-61
2023/07/15 17:56:19;;;;;;;2.45;1.67;;;;;;;;;;8303407;28;20757;-61
2023/07/15 18:00:19;;;;;;;3.15;1.63;;;;;;;;;;8304216;28;20148;-61
2023/07/15 18:04:20;;;;;;;3.65;1.60;;;;;;;;;;8304891;28;20024;-61
2023/07/15 18:08:20;;;;;;;2.35;1.80;;;;;;;;;;8302823;28;20858;-61
2023/07/15 18:12:21;;;;;;;2.47;1.65;;;;;;;;;;8305622;28;20120;-61
2023/07/15 18:16:21;;;;;;;5.47;1.88;;;;;;;;;;8305009;28;20033;-61
2023/07/15 18:20:21;;;;;;;1.85;1.60;;;;;;;;;;8305764;28;20040;-61
2023/07/15 18:24:21;;;;;;;2.43;1.73;;;;;;;;;;8304948;28;20035;-61
2023/07/15 18:28:22;;;;;;;2.13;1.80;;;;;;;;;;8304076;28;20033;-61
2023/07/15 18:32:22;;;;;;;2.10;1.90;;;;;;;;;;8306993;28;20038;-61
2023/07/15 18:36:23;;;;;;;2.60;1.90;;;;;;;;;;8303423;28;20025;-61
2023/07/15 18:40:23;;;;;;;2.30;2.00;;;;;;;;;;8303220;28;20128;-61
2023/07/15 18:44:23;;;;;;;2.92;2.28;;;;;;;;;;8303927;28;20055;-61
2023/07/15 18:48:23;;;;;;;2.83;1.92;;;;;;;;;;8304798;28;20041;-61
2023/07/15 18:52:24;;;;;;;2.00;1.90;;;;;;;;;;8304429;28;20489;-61
2023/07/15 18:56:24;;;;;;;2.72;1.88;;;;;;;;;;8301389;28;21052;-61
2023/07/15 19:00:24;;;;;;;6.90;2.50;;;;;;;;;;8302773;28;20055;-61
2023/07/15 19:04:24;;;;;;;3.78;2.30;;;;;;;;;;8304462;28;20083;-61
2023/07/15 19:08:25;;;;;;;2.47;2.20;;;;;;;;;;8299892;28;20029;-61
2023/07/15 19:12:25;;;;;;;2.85;2.20;;;;;;;;;;8301432;28;20551;-60
2023/07/15 19:16:27;;;;;;;3.13;2.10;;;;;;;;;;8303586;28;20033;-60
2023/07/15 19:20:29;;;;;;;8.20;2.38;;;;;;;;;;8304046;28;20474;-60
2023/07/15 19:24:29;;;;;;;2.38;1.92;;;;;;;;;;8302755;28;20882;-60
2023/07/15 19:28:29;;;;;;;3.55;2.33;;;;;;;;;;8303897;28;20029;-61
2023/07/15 19:32:29;;;;;;;2.67;1.70;;;;;;;;;;8304318;28;20037;-60
2023/07/15 19:36:29;;;;;;;3.65;1.67;;;;;;;;;;8301168;28;20496;-61
2023/07/15 19:40:30;;;;;;;4.55;1.85;;;;;;;;;;8303616;28;20083;-61
2023/07/15 19:44:30;;;;;;;2.55;1.60;;;;;;;;;;8303375;28;20025;-60
2023/07/15 19:48:30;;;;;;;2.95;1.83;;;;;;;;;;8302541;28;20029;-61
2023/07/15 19:52:30;;;;;;;4.68;1.80;;;;;;;;;;8300333;28;20025;-60
2023/07/15 19:56:30;;;;;;;2.90;1.70;;;;;;;;;;8302290;28;20035;-60
2023/07/15 20:00:30;;;;;;;2.45;1.50;;;;;;;;;;8300165;28;20127;-61
2023/07/15 20:04:31;;;;;;;1.70;1.60;;;;;;;;;;8304105;28;20021;-61
2023/07/15 20:08:31;;;;;;;2.73;1.60;;;;;;;;;;8300732;28;20128;-61
2023/07/15 20:12:31;;;;;;;3.50;1.70;;;;;;;;;;8303456;28;20037;-61
2023/07/15 20:16:32;;;;;;;3.80;2.38;;;;;;;;;;8299302;28;20391;-60
2023/07/15 20:20:32;;;;;;;2.70;1.70;;;;;;;;;;8302575;28;20021;-61
2023/07/15 20:24:32;;;;;;;1.70;1.60;;;;;;;;;;8301954;28;20025;-61
2023/07/15 20:28:32;;;;;;;3.85;1.60;;;;;;;;;;8301936;28;20079;-61
2023/07/15 20:32:32;;;;;;;2.45;1.63;;;;;;;;;;8301251;28;20033;-61
2023/07/15 20:36:33;;;;;;;2.78;1.52;;;;;;;;;;8300207;28;20524;-61
2023/07/15 20:40:33;;;;;;;1.88;1.77;;;;;;;;;;8298573;28;20066;-61
2023/07/15 20:44:33;;;;;;;2.85;1.60;;;;;;;;;;8301361;28;20036;-61
2023/07/15 20:48:33;;;;;;;1.77;1.52;;;;;;;;;;8301444;28;20495;-61
2023/07/15 20:52:34;;;;;;;3.63;1.77;;;;;;;;;;8300373;28;20152;-61
2023/07/15 20:56:34;;;;;;;3.22;1.70;;;;;;;;;;8298353;28;20859;-61
2023/07/15 21:00:34;;;;;;;2.03;1.60;;;;;;;;;;8298481;28;20041;-61
2023/07/15 21:04:34;;;;;;;2.47;1.40;;;;;;;;;;8308012;28;20021;-61
2023/07/15 21:08:35;;;;;;;2.75;1.60;;;;;;;;;;8307156;28;20067;-61
2023/07/15 21:12:35;;;;;;;1.73;1.50;;;;;;;;;;8307063;28;20100;-61
2023/07/15 21:16:36;;;;;;;2.08;1.40;;;;;;;;;;8308534;28;20041;-61
2023/07/15 21:20:36;;;;;;;2.60;1.52;;;;;;;;;;8309323;28;20021;-61
2023/07/15 21:24:36;;;;;;;1.70;1.50;;;;;;;;;;8307407;28;20140;-61
2023/07/15 21:28:39;;;;;;;2.22;1.65;;;;;;;;;;8307140;28;20050;-61
2023/07/15 21:32:40;;;;;;;3.30;1.95;;;;;;;;;;8307631;28;20034;-61
2023/07/15 21:36:40;;;;;;;1.40;1.30;;;;;;;;;;8305709;28;20018;-62
2023/07/15 21:40:43;;;;;;;2.93;1.53;;;;;;;;;;8307426;28;20021;-61
2023/07/15 21:44:44;;;;;;;3.65;1.40;;;;;;;;;;8308172;28;20025;-61
2023/07/15 21:48:44;;;;;;;1.75;1.42;;;;;;;;;;8303450;28;20039;-61
2023/07/15 21:52:44;;;;;;;1.57;1.47;;;;;;;;;;8307470;28;20732;-61
2023/07/15 21:56:45;;;;;;;1.60;1.50;;;;;;;;;;8304548;28;20363;-61
2023/07/15 22:00:45;;;;;;;1.67;1.30;;;;;;;;;;8305730;28;20087;-61
2023/07/15 22:04:45;;;;;;;2.40;1.70;;;;;;;;;;8307346;28;20517;-61
2023/07/15 22:08:45;;;;;;;3.33;2.10;;;;;;;;;;8305290;28;20535;-61
2023/07/15 22:12:46;;;;;;;3.00;2.05;;;;;;;;;;8302764;28;20045;-61
2023/07/15 22:16:46;;;;;;;2.60;1.60;;;;;;;;;;8304360;28;20029;-61
2023/07/15 22:20:46;;;;;;;2.10;1.52;;;;;;;;;;8304448;28;20039;-61
2023/07/15 22:24:46;;;;;;;2.58;1.42;;;;;;;;;;8305948;28;20041;-61
2023/07/15 22:28:47;;;;;;;4.05;1.52;;;;;;;;;;8302213;28;20075;-61
2023/07/15 22:32:47;;;;;;;1.30;1.20;;;;;;;;;;8304976;28;20258;-61
2023/07/15 22:36:47;;;;;;;1.50;1.40;;;;;;;;;;8304278;28;20057;-61
2023/07/15 22:40:47;;;;;;;2.05;1.30;;;;;;;;;;8303733;28;20025;-61
2023/07/15 22:44:47;;;;;;;1.48;1.30;;;;;;;;;;8304387;28;20024;-61
2023/07/15 22:48:48;;;;;;;2.00;1.40;;;;;;;;;;8303849;28;20238;-61
2023/07/15 22:52:48;;;;;;;3.75;1.50;;;;;;;;;;8304195;28;20359;-61
2023/07/15 22:56:49;;;;;;;2.08;1.45;;;;;;;;;;8305027;28;20028;-61
2023/07/15 23:00:51;;;;;;;3.20;1.40;;;;;;;;;;8302991;28;20037;-61
2023/07/15 23:04:51;;;;;;;3.25;1.55;;;;;;;;;;8303640;28;20283;-61
2023/07/15 23:08:51;;;;;;;2.90;1.40;;;;;;;;;;8303109;28;20090;-61
2023/07/15 23:12:51;;;;;;;4.03;1.75;;;;;;;;;;8304613;28;20043;-61
2023/07/15 23:16:52;;;;;;;1.97;1.13;;;;;;;;;;8301808;28;20465;-61
2023/07/15 23:20:52;;;;;;;5.95;1.30;;;;;;;;;;8303952;28;20036;-61
2023/07/15 23:24:52;;;;;;;1.90;1.00;;;;;;;;;;8299852;28;20128;-61
2023/07/15 23:28:52;;;;;;;2.53;1.33;;;;;;;;;;8300128;28;20104;-61
2023/07/15 23:32:53;;;;;;;1.98;1.33;;;;;;;;;;8301217;28;20099;-61
2023/07/15 23:36:53;;;;;;;2.13;1.37;;;;;;;;;;8303094;28;20824;-61
2023/07/15 23:40:53;;;;;;;5.93;1.50;;;;;;;;;;8299768;28;20280;-61
2023/07/15 23:44:53;;;;;;;3.08;1.23;;;;;;;;;;8303225;28;20147;-61
2023/07/15 23:48:54;;;;;;;2.13;1.20;;;;;;;;;;8301006;28;20767;-60
2023/07/15 23:52:54;;;;;;;1.42;1.17;;;;;;;;;;8302940;28;20084;-62
2023/07/15 23:56:54;;;;;;;3.38;1.60;;;;;;;;;;8299369;28;20040;-61
